This is the latest recevied weather packets stored in our database for station/object VA7NIC-10. If no packets are shown the sender has not sent any weather packets the latest 10 day(s).
| Time | Temp. | Humidity | Pressure | Rain* | Wind** | Luminosity | Snow |
|---|---|---|---|---|---|---|---|
| 1777855921 | 27.78° C | 22% | 1009.3 hPa | 0 mm | - | - | - |
| 1777855021 | 27.78° C | 21% | 1009.4 hPa | 0 mm | - | - | - |
| 1777854121 | 27.78° C | 19% | 1009.6 hPa | 0 mm | - | - | - |
| 1777853221 | 27.78° C | 20% | 1009.7 hPa | 0 mm | - | - | - |
| 1777852321 | 27.78° C | 20% | 1009.8 hPa | 0 mm | - | - | - |
| 1777851421 | 27.78° C | 21% | 1010 hPa | 0 mm | - | - | - |
| 1777850521 | 27.78° C | 21% | 1010.2 hPa | 0 mm | - | - | - |
| 1777849622 | 27.78° C | 22% | 1010.3 hPa | 0 mm | - | - | - |
| 1777848722 | 27.78° C | 24% | 1010.4 hPa | 0 mm | - | - | - |
| 1777847822 | 27.78° C | 24% | 1010.6 hPa | 0 mm | - | - | - |
| 1777846922 | 27.78° C | 24% | 1010.8 hPa | 0 mm | - | - | - |
| 1777846022 | 27.78° C | 25% | 1010.8 hPa | 0 mm | - | - | - |
| 1777845122 | 27.22° C | 26% | 1011 hPa | 0 mm | - | - | - |
| 1777844222 | 27.22° C | 28% | 1011.1 hPa | 0 mm | - | - | - |
| 1777843322 | 27.22° C | 30% | 1011.2 hPa | 0 mm | - | - | - |
| 1777842421 | 27.22° C | 31% | 1011.4 hPa | 0 mm | - | - | - |
| 1777841521 | 27.22° C | 29% | 1011.6 hPa | 0 mm | - | - | - |
| 1777840621 | 26.67° C | 31% | 1011.9 hPa | 0 mm | - | - | - |
| 1777839721 | 26.11° C | 37% | 1012.2 hPa | 0 mm | - | - | - |
| 1777838821 | 25.56° C | 40% | 1012.3 hPa | 0 mm | - | - | - |
| 1777837921 | 25.56° C | 37% | 1012.6 hPa | 0 mm | - | - | - |
| 1777837021 | 25.56° C | 39% | 1012.7 hPa | 0 mm | - | - | - |
| 1777836121 | 25° C | 38% | 1012.8 hPa | 0 mm | - | - | - |
| 1777835222 | 23.89° C | 42% | 1013 hPa | 0 mm | - | - | - |
| 1777834322 | 23.33° C | 46% | 1013.1 hPa | 0 mm | - | - | - |
* Rain latest hour (hover to see other rain measurements)
** Current wind speed in m/s (hover to see current wind gust speed)